Startpagina
METAR-TAF:

METAR-TAF

Vliegvelden :

Chinandega, Nicaragua

breedte: 12-38N, lengte: 087-08W, hoogte: 53 m

Actueel weer

Dit bericht is 35 minuten geleden gemaakt, om 18:00 UTC
Wind 4 kt uit het zuiden
Temperatuur 30°C
Vochtigheid 79%
Druk 1010 hPa
Zicht 10 km of meer
Weinig wolken op 2400 ft, Cumulonimbus.
Verspreide wolken op 2500 ft

METAR: MNCH 191800Z 17004KT 9999 FEW024CB SCT025 30/26 Q1010 CB/N/NE/NW TCU/E/SE

Tijdstip: 12:35 (18:35 UTC)


TAF: ontbreekt

Waarnemingen en weersverwachtingen van meer dan 4000 vliegvelden (METAR en TAF).

De beschikbare stations zijn de gele en rode punten op de kaart.

Ga met uw muis naar het station om de naam te zien.

Klik dan om waarnemingen en weersverwachtingen te zien.

kaart wijzigen: klik op de groene knoppen met een zwart kruis om in te zoomen, op de groene knop met een streepje om uit te zoomen of op de groene pijlen voor aangrenzende kaarten.


METAR-TAF: